createdAt,value
2023-04-22T00:02:15.204Z,8.67
2023-04-22T00:04:48.561Z,8.69
2023-04-22T00:07:19.668Z,8.73
2023-04-22T00:09:49.918Z,8.75
2023-04-22T00:12:19.494Z,8.75
2023-04-22T00:14:49.202Z,8.73
2023-04-22T00:17:18.761Z,8.74
2023-04-22T00:19:48.528Z,8.76
2023-04-22T00:22:18.224Z,8.76
2023-04-22T00:24:47.817Z,8.72
2023-04-22T00:27:17.466Z,8.58
2023-04-22T00:29:46.387Z,8.52
2023-04-22T00:32:15.436Z,8.51
2023-04-22T00:34:46.015Z,8.52
2023-04-22T00:37:16.207Z,8.54
2023-04-22T00:39:46.212Z,8.58
2023-04-22T00:42:17.405Z,8.61
2023-04-22T00:44:48.866Z,8.64
2023-04-22T00:47:19.386Z,8.68
2023-04-22T00:49:50.840Z,8.72
2023-04-22T00:52:20.427Z,8.73
2023-04-22T00:54:51.926Z,8.77
2023-04-22T00:57:21.626Z,8.78
2023-04-22T00:59:51.682Z,8.76
2023-04-22T01:02:21.601Z,8.77
2023-04-22T01:04:54.708Z,8.76
2023-04-22T01:07:24.779Z,8.75
2023-04-22T01:09:55.093Z,8.70
2023-04-22T01:12:23.930Z,8.63
2023-04-22T01:14:53.454Z,8.56
2023-04-22T01:17:25.187Z,8.49
2023-04-22T01:19:56.104Z,8.44
2023-04-22T01:22:30.107Z,8.38
2023-04-22T01:25:00.552Z,8.34
2023-04-22T01:27:29.781Z,8.32
2023-04-22T01:30:00.756Z,8.28
2023-04-22T01:32:31.609Z,8.21
2023-04-22T01:35:01.291Z,8.15
2023-04-22T01:37:31.563Z,8.12
2023-04-22T01:40:01.656Z,8.08
2023-04-22T01:42:31.642Z,8.04
2023-04-22T01:45:01.993Z,7.99
2023-04-22T01:47:31.690Z,7.95
2023-04-22T01:50:01.916Z,7.89
2023-04-22T01:52:31.850Z,7.84
2023-04-22T01:55:03.117Z,7.81
2023-04-22T01:57:33.129Z,7.79
2023-04-22T02:00:04.280Z,7.76
2023-04-22T02:02:43.766Z,7.72
2023-04-22T02:05:13.982Z,7.65
2023-04-22T02:07:44.368Z,7.61
2023-04-22T02:10:14.583Z,7.57
2023-04-22T02:12:44.829Z,7.55
2023-04-22T02:15:16.956Z,7.53
2023-04-22T02:17:47.788Z,7.52
2023-04-22T02:20:17.537Z,7.51
2023-04-22T02:22:47.709Z,7.51
2023-04-22T02:25:17.369Z,7.51
2023-04-22T02:27:46.912Z,7.49
2023-04-22T02:30:17.209Z,7.49
2023-04-22T02:32:47.455Z,7.49
2023-04-22T02:35:16.422Z,7.49
2023-04-22T02:37:47.266Z,7.48
2023-04-22T02:40:17.924Z,7.46
2023-04-22T02:42:49.187Z,7.42
2023-04-22T02:45:18.207Z,7.39
2023-04-22T02:47:47.976Z,7.37
2023-04-22T02:50:18.269Z,7.35
2023-04-22T02:52:47.908Z,7.34
2023-04-22T02:55:17.616Z,7.34
2023-04-22T02:57:47.618Z,7.33
2023-04-22T03:00:18.000Z,7.31
2023-04-22T03:02:48.480Z,7.27
2023-04-22T03:05:20.956Z,7.24
2023-04-22T03:07:50.860Z,7.22
2023-04-22T03:10:20.687Z,7.18
2023-04-22T03:12:50.474Z,7.15
2023-04-22T03:15:21.640Z,7.11
2023-04-22T03:17:51.922Z,7.07
2023-04-22T03:20:22.526Z,7.04
2023-04-22T03:22:52.093Z,7.03
2023-04-22T03:25:21.844Z,7.01
2023-04-22T03:27:56.410Z,6.98
2023-04-22T03:30:26.450Z,6.94
2023-04-22T03:32:58.323Z,6.90
2023-04-22T03:35:33.923Z,6.84
2023-04-22T03:38:03.561Z,6.78
2023-04-22T03:40:35.823Z,6.76
2023-04-22T03:43:09.671Z,6.73
2023-04-22T03:45:39.415Z,6.72
2023-04-22T03:48:35.758Z,6.72
2023-04-22T03:51:09.556Z,6.69
2023-04-22T03:53:40.064Z,6.66
2023-04-22T03:56:11.348Z,6.65
2023-04-22T03:58:43.409Z,6.62
2023-04-22T04:01:13.644Z,6.58
2023-04-22T04:03:44.868Z,6.57
2023-04-22T04:06:15.037Z,6.58
2023-04-22T04:08:45.087Z,6.58
2023-04-22T04:11:14.768Z,6.59
2023-04-22T04:13:43.854Z,6.60
2023-04-22T04:16:24.149Z,6.60
2023-04-22T04:18:59.169Z,6.58
2023-04-22T04:21:29.976Z,6.57
2023-04-22T04:24:00.314Z,6.57
2023-04-22T04:26:34.293Z,6.57
2023-04-22T04:29:10.462Z,6.58
2023-04-22T04:31:42.231Z,6.59
2023-04-22T04:34:11.496Z,6.62
2023-04-22T04:36:41.777Z,6.67
2023-04-22T04:39:20.966Z,6.72
2023-04-22T04:41:56.164Z,6.76
2023-04-22T04:44:28.731Z,6.79
2023-04-22T04:46:59.122Z,6.84
2023-04-22T04:49:31.067Z,6.88
2023-04-22T04:52:01.993Z,6.94
2023-04-22T04:54:32.654Z,7.04
2023-04-22T04:57:02.373Z,7.14
2023-04-22T04:59:32.230Z,7.23
2023-04-22T05:02:02.845Z,7.32
2023-04-22T05:04:33.199Z,7.41
2023-04-22T05:07:03.194Z,7.50
2023-04-22T05:09:37.886Z,7.61
2023-04-22T05:12:08.592Z,7.70
2023-04-22T05:14:38.775Z,7.78
2023-04-22T05:17:08.765Z,7.88
2023-04-22T05:19:38.506Z,8.01
2023-04-22T05:22:09.332Z,8.12
2023-04-22T05:24:39.054Z,8.23
2023-04-22T05:27:08.742Z,8.35
2023-04-22T05:29:38.794Z,8.48
2023-04-22T05:32:11.763Z,8.61
2023-04-22T05:34:45.064Z,8.74
2023-04-22T05:37:15.372Z,8.88
2023-04-22T05:39:46.621Z,9.01
2023-04-22T05:42:18.426Z,9.12
2023-04-22T05:44:47.439Z,9.25
2023-04-22T05:47:19.039Z,9.38
2023-04-22T05:49:49.403Z,9.53
2023-04-22T05:52:31.078Z,9.68
2023-04-22T05:55:07.813Z,9.80
2023-04-22T05:57:39.234Z,9.89
2023-04-22T06:00:16.919Z,9.98
2023-04-22T06:02:49.044Z,10.11
2023-04-22T06:05:19.000Z,10.25
2023-04-22T06:07:49.579Z,10.41
2023-04-22T06:10:19.050Z,10.55
2023-04-22T06:12:49.425Z,10.69
2023-04-22T06:15:19.176Z,10.84
2023-04-22T06:17:52.754Z,11.02
2023-04-22T06:20:22.544Z,11.21
2023-04-22T06:22:53.057Z,11.38
2023-04-22T06:25:22.621Z,11.55
2023-04-22T06:27:53.199Z,11.70
2023-04-22T06:30:24.263Z,11.83
2023-04-22T06:32:55.584Z,11.99
2023-04-22T06:35:25.368Z,12.20
2023-04-22T06:37:55.976Z,12.39
2023-04-22T06:40:27.922Z,12.60
2023-04-22T06:43:34.773Z,12.80
2023-04-22T06:46:04.866Z,12.99
2023-04-22T06:48:54.456Z,13.16
2023-04-22T06:51:39.828Z,13.33
2023-04-22T06:54:09.831Z,13.54
2023-04-22T06:56:39.410Z,13.75
2023-04-22T06:59:09.678Z,13.93
2023-04-22T07:01:39.593Z,14.11
2023-04-22T07:04:11.395Z,14.29
2023-04-22T07:06:43.061Z,14.47
2023-04-22T07:09:13.896Z,14.70
2023-04-22T07:11:43.363Z,14.82
2023-04-22T07:14:21.062Z,14.93
2023-04-22T07:16:51.494Z,15.01
2023-04-22T07:19:21.817Z,15.24
2023-04-22T07:21:51.813Z,15.50
2023-04-22T07:24:22.061Z,15.75
2023-04-22T07:26:51.645Z,15.91
2023-04-22T07:29:21.422Z,16.10
2023-04-22T07:31:51.222Z,16.31
2023-04-22T07:34:20.724Z,16.51
2023-04-22T07:36:55.089Z,16.70
2023-04-22T07:39:23.840Z,16.91
2023-04-22T07:41:53.772Z,17.00
2023-04-22T07:44:23.328Z,17.18
2023-04-22T07:46:52.822Z,17.33
2023-04-22T07:49:22.247Z,17.51
2023-04-22T07:51:52.569Z,17.73
2023-04-22T07:54:22.000Z,17.77
2023-04-22T07:56:51.644Z,17.82
2023-04-22T07:59:21.655Z,17.88
2023-04-22T08:01:51.477Z,17.94
2023-04-22T08:04:24.008Z,17.95
2023-04-22T08:06:55.263Z,17.95
2023-04-22T08:09:25.038Z,18.10
2023-04-22T08:11:54.864Z,18.33
2023-04-22T08:14:24.906Z,18.55
2023-04-22T08:16:54.798Z,18.70
2023-04-22T08:19:25.292Z,18.81
2023-04-22T08:21:55.551Z,18.93
2023-04-22T08:24:25.215Z,19.16
2023-04-22T08:26:54.838Z,19.29
2023-04-22T08:29:25.007Z,19.30
2023-04-22T08:31:55.034Z,19.37
2023-04-22T08:34:26.594Z,19.46
2023-04-22T08:36:55.506Z,19.53
2023-04-22T08:39:25.190Z,19.64
2023-04-22T08:41:56.751Z,19.91
2023-04-22T08:44:27.290Z,20.05
2023-04-22T08:46:57.681Z,20.12
2023-04-22T08:49:30.784Z,20.13
2023-04-22T08:52:00.154Z,20.34
2023-04-22T08:54:29.827Z,20.65
2023-04-22T08:57:02.994Z,20.74
2023-04-22T08:59:34.509Z,20.73
2023-04-22T09:02:06.895Z,20.64
2023-04-22T09:04:37.685Z,20.60
2023-04-22T09:07:08.262Z,20.80
2023-04-22T09:09:38.570Z,20.99
2023-04-22T09:12:10.247Z,21.28
2023-04-22T09:14:40.074Z,21.40
2023-04-22T09:17:09.757Z,21.49
2023-04-22T09:19:42.182Z,21.74
2023-04-22T09:22:16.552Z,22.06
2023-04-22T09:24:53.039Z,22.20
2023-04-22T09:27:25.774Z,22.14
2023-04-22T09:29:55.878Z,22.05
2023-04-22T09:32:26.713Z,22.14
2023-04-22T09:34:56.709Z,22.05
2023-04-22T09:37:33.284Z,21.96
2023-04-22T09:40:10.223Z,22.21
2023-04-22T09:42:51.553Z,22.56
2023-04-22T09:45:47.468Z,22.79
2023-04-22T09:48:19.639Z,23.00
2023-04-22T09:50:51.619Z,23.11
2023-04-22T09:53:22.571Z,23.25
2023-04-22T09:55:55.075Z,23.46
2023-04-22T09:58:28.206Z,23.52
2023-04-22T10:00:59.740Z,23.52
2023-04-22T10:03:29.622Z,23.72
2023-04-22T10:05:59.886Z,23.80
2023-04-22T10:08:33.769Z,23.47
2023-04-22T10:11:03.538Z,23.30
2023-04-22T10:13:33.341Z,23.11
2023-04-22T10:16:03.616Z,23.28
2023-04-22T10:18:34.679Z,23.07
2023-04-22T10:21:06.551Z,23.02
2023-04-22T10:23:36.176Z,23.31
2023-04-22T10:26:06.174Z,23.38
2023-04-22T10:28:46.353Z,23.40
2023-04-22T10:31:22.880Z,23.31
2023-04-22T10:34:11.702Z,23.24
2023-04-22T10:37:20.393Z,23.19
2023-04-22T10:40:10.247Z,22.31
2023-04-22T10:42:41.875Z,21.60
2023-04-22T10:45:15.731Z,21.06
2023-04-22T10:47:45.702Z,20.69
2023-04-22T10:50:32.354Z,20.53
2023-04-22T10:53:37.531Z,20.60
2023-04-22T10:56:20.657Z,21.20
2023-04-22T10:58:50.790Z,21.63
2023-04-22T11:01:19.625Z,21.81
2023-04-22T11:03:52.117Z,22.24
2023-04-22T11:06:23.732Z,22.59
2023-04-22T11:09:15.180Z,22.55
2023-04-22T11:11:44.823Z,22.50
2023-04-22T11:14:15.063Z,22.41
2023-04-22T11:16:54.367Z,22.31
2023-04-22T11:19:24.658Z,21.93
2023-04-22T11:21:58.037Z,21.64
2023-04-22T11:24:27.514Z,21.49
2023-04-22T11:26:57.465Z,21.25
2023-04-22T11:29:27.206Z,21.11
2023-04-22T11:31:57.965Z,21.06
2023-04-22T11:34:29.950Z,21.22
2023-04-22T11:36:59.539Z,21.33
2023-04-22T11:39:41.381Z,21.26
2023-04-22T11:42:23.077Z,21.44
2023-04-22T11:44:52.834Z,21.72
2023-04-22T11:47:22.947Z,21.94
2023-04-22T11:50:08.891Z,22.23
2023-04-22T11:52:47.267Z,22.62
2023-04-22T11:55:21.531Z,22.97
2023-04-22T11:57:59.379Z,22.99
2023-04-22T12:00:42.342Z,23.01
2023-04-22T12:03:20.841Z,22.96
2023-04-22T12:06:06.353Z,22.84
2023-04-22T12:08:42.757Z,22.94
2023-04-22T12:11:14.298Z,23.08
2023-04-22T12:13:46.787Z,23.12
2023-04-22T12:16:19.635Z,23.22
2023-04-22T12:18:56.298Z,23.17
2023-04-22T12:21:29.108Z,23.31
2023-04-22T12:24:06.356Z,23.40
2023-04-22T12:26:38.205Z,22.99
2023-04-22T12:29:07.797Z,22.54
2023-04-22T12:31:39.026Z,22.15
2023-04-22T12:34:08.111Z,22.08
2023-04-22T12:36:38.240Z,21.99
2023-04-22T12:39:07.875Z,21.94
2023-04-22T12:41:36.764Z,21.97
2023-04-22T12:44:09.265Z,22.13
2023-04-22T12:46:39.089Z,22.37
2023-04-22T12:49:10.189Z,22.45
2023-04-22T12:51:38.976Z,22.64
2023-04-22T12:54:08.561Z,22.85
2023-04-22T12:56:38.377Z,23.20
2023-04-22T12:59:07.817Z,23.23
2023-04-22T13:01:37.949Z,23.25
2023-04-22T13:04:07.856Z,23.45
2023-04-22T13:06:38.921Z,23.54
2023-04-22T13:09:10.388Z,23.48
2023-04-22T13:11:39.865Z,23.50
2023-04-22T13:14:10.031Z,23.64
2023-04-22T13:16:39.991Z,23.69
2023-04-22T13:19:10.099Z,23.72
2023-04-22T13:21:40.197Z,23.79
2023-04-22T13:24:09.923Z,23.88
2023-04-22T13:26:39.396Z,24.09
2023-04-22T13:29:13.514Z,24.19
2023-04-22T13:31:44.949Z,24.57
2023-04-22T13:34:15.886Z,24.72
2023-04-22T13:36:44.718Z,24.55
2023-04-22T13:39:16.561Z,24.53
2023-04-22T13:41:47.277Z,24.48
2023-04-22T13:44:17.801Z,24.45
2023-04-22T13:46:46.805Z,24.34
2023-04-22T13:49:16.440Z,24.20
2023-04-22T13:51:45.916Z,24.39
2023-04-22T13:54:15.494Z,24.39
2023-04-22T13:56:45.114Z,24.35
2023-04-22T13:59:14.726Z,24.40
2023-04-22T14:01:44.768Z,24.38
2023-04-22T14:04:14.299Z,24.43
2023-04-22T14:06:45.711Z,24.31
2023-04-22T14:09:15.149Z,24.27
2023-04-22T14:11:45.067Z,24.35
2023-04-22T14:14:15.710Z,24.22
2023-04-22T14:16:46.023Z,23.97
2023-04-22T14:19:15.803Z,23.79
2023-04-22T14:21:45.341Z,23.60
